createdAt,value
2022-08-27T00:03:50.704Z,2.88
2022-08-27T00:07:54.473Z,2.88
2022-08-27T00:11:58.888Z,2.65
2022-08-27T00:16:02.024Z,3.40
2022-08-27T00:20:09.646Z,2.60
2022-08-27T00:24:13.966Z,3.38
2022-08-27T00:28:17.650Z,3.10
2022-08-27T00:32:22.111Z,3.60
2022-08-27T00:36:27.250Z,3.35
2022-08-27T00:40:30.721Z,2.75
2022-08-27T00:44:34.267Z,2.80
2022-08-27T00:48:38.836Z,3.60
2022-08-27T00:52:48.424Z,2.35
2022-08-27T00:56:52.206Z,2.65
2022-08-27T01:00:56.608Z,2.50
2022-08-27T01:05:05.018Z,2.40
2022-08-27T01:09:14.880Z,2.55
2022-08-27T01:13:20.645Z,2.10
2022-08-27T01:17:47.292Z,2.42
2022-08-27T01:22:00.073Z,3.00
2022-08-27T01:30:14.773Z,2.58
2022-08-27T01:34:18.115Z,2.38
2022-08-27T01:38:30.983Z,2.35
2022-08-27T01:42:40.519Z,1.83
2022-08-27T01:46:44.730Z,2.42
2022-08-27T01:50:49.835Z,3.45
2022-08-27T01:55:04.961Z,2.55
2022-08-27T01:59:10.448Z,2.10
2022-08-27T02:03:14.847Z,2.78
2022-08-27T02:07:18.651Z,2.42
2022-08-27T02:11:22.344Z,2.47
2022-08-27T02:15:27.563Z,2.38
2022-08-27T02:19:31.198Z,2.47
2022-08-27T02:23:35.219Z,3.15
2022-08-27T02:27:39.031Z,2.60
2022-08-27T02:31:44.100Z,2.50
2022-08-27T02:35:47.447Z,1.92
2022-08-27T02:39:51.370Z,2.63
2022-08-27T02:43:55.152Z,2.55
2022-08-27T02:48:00.392Z,3.15
2022-08-27T02:52:03.945Z,3.35
2022-08-27T02:56:09.196Z,3.55
2022-08-27T03:00:16.719Z,2.97
2022-08-27T03:04:23.474Z,4.10
2022-08-27T03:08:28.453Z,3.92
2022-08-27T03:12:36.974Z,4.18
2022-08-27T03:16:40.881Z,3.42
2022-08-27T03:20:48.740Z,3.53
2022-08-27T03:24:52.257Z,3.83
2022-08-27T03:28:56.241Z,3.80
2022-08-27T03:32:59.569Z,4.20
2022-08-27T03:37:04.245Z,3.72
2022-08-27T03:41:08.432Z,4.68
2022-08-27T03:45:12.930Z,3.17
2022-08-27T03:49:16.379Z,3.90
2022-08-27T03:53:25.493Z,3.95
2022-08-27T03:57:29.350Z,4.85
2022-08-27T04:01:33.749Z,5.05
2022-08-27T04:05:37.829Z,3.42
2022-08-27T04:09:42.685Z,4.75
2022-08-27T04:13:46.375Z,3.65
2022-08-27T04:17:50.203Z,4.43
2022-08-27T04:21:54.106Z,4.13
2022-08-27T04:25:59.185Z,4.60
2022-08-27T04:30:03.929Z,3.80
2022-08-27T04:34:08.173Z,4.32
2022-08-27T04:38:11.935Z,5.40
2022-08-27T04:42:20.129Z,5.38
2022-08-27T04:46:25.269Z,5.20
2022-08-27T04:50:28.425Z,4.80
2022-08-27T04:54:33.269Z,5.03
2022-08-27T04:58:38.268Z,5.53
2022-08-27T05:02:41.526Z,5.10
2022-08-27T05:06:46.221Z,5.35
2022-08-27T05:10:52.575Z,4.75
2022-08-27T05:14:57.779Z,4.55
2022-08-27T05:19:01.484Z,4.55
2022-08-27T05:23:05.253Z,4.85
2022-08-27T05:27:09.893Z,4.85
2022-08-27T05:31:20.066Z,4.82
2022-08-27T05:39:35.360Z,4.38
2022-08-27T05:43:39.717Z,4.85
2022-08-27T05:47:44.902Z,4.07
2022-08-27T05:51:49.569Z,4.00
2022-08-27T05:55:53.387Z,4.80
2022-08-27T06:00:15.784Z,5.35
2022-08-27T06:04:22.047Z,4.05
2022-08-27T06:08:25.854Z,5.63
2022-08-27T06:12:30.218Z,4.68
2022-08-27T06:16:34.318Z,4.35
2022-08-27T06:20:39.410Z,4.95
2022-08-27T06:24:47.673Z,4.63
2022-08-27T06:28:51.230Z,4.65
2022-08-27T06:32:55.232Z,4.80
2022-08-27T06:36:59.770Z,3.85
2022-08-27T06:41:06.158Z,4.03
2022-08-27T06:45:20.394Z,4.30
2022-08-27T06:49:24.078Z,4.22
2022-08-27T06:53:29.284Z,4.82
2022-08-27T06:57:33.116Z,5.18
2022-08-27T07:01:39.340Z,5.30
2022-08-27T07:05:43.164Z,5.80
2022-08-27T07:09:47.711Z,5.43
2022-08-27T07:13:52.650Z,5.25
2022-08-27T07:17:56.358Z,5.00
2022-08-27T07:22:00.824Z,5.85
2022-08-27T07:26:08.823Z,5.05
2022-08-27T07:30:16.247Z,5.82
2022-08-27T07:34:19.982Z,4.88
2022-08-27T07:38:23.872Z,5.00
2022-08-27T07:42:46.303Z,5.30
2022-08-27T07:46:49.678Z,6.00
2022-08-27T07:50:54.322Z,6.13
2022-08-27T07:54:57.850Z,5.43
2022-08-27T07:59:02.872Z,5.35
2022-08-27T08:03:06.501Z,5.35
2022-08-27T08:07:09.721Z,5.95
2022-08-27T08:11:15.879Z,6.13
2022-08-27T08:15:21.001Z,5.05
2022-08-27T08:19:25.124Z,5.20
2022-08-27T08:23:28.895Z,5.72
2022-08-27T08:27:34.011Z,5.68
2022-08-27T08:31:39.229Z,5.85
2022-08-27T08:35:42.830Z,5.28
2022-08-27T08:39:46.408Z,5.50
2022-08-27T08:43:52.435Z,5.07
2022-08-27T08:48:05.480Z,5.30
2022-08-27T08:52:30.772Z,4.95
2022-08-27T08:56:43.349Z,5.80
2022-08-27T09:00:50.337Z,4.05
2022-08-27T09:04:56.179Z,5.38
2022-08-27T09:09:05.581Z,5.60
2022-08-27T09:13:20.544Z,4.35
2022-08-27T09:17:24.372Z,4.05
2022-08-27T09:21:43.090Z,4.13
2022-08-27T09:25:47.814Z,4.72
2022-08-27T09:29:53.227Z,4.88
2022-08-27T09:33:57.285Z,5.10
2022-08-27T09:38:05.161Z,3.83
2022-08-27T09:42:09.406Z,3.85
2022-08-27T09:46:22.306Z,4.55
2022-08-27T09:50:39.598Z,3.72
2022-08-27T09:54:48.655Z,4.00
2022-08-27T09:58:55.688Z,3.88
2022-08-27T10:03:03.726Z,3.80
2022-08-27T10:07:41.249Z,4.03
2022-08-27T10:11:54.609Z,4.88
2022-08-27T10:16:40.497Z,4.10
2022-08-27T10:20:54.122Z,3.70
2022-08-27T10:25:11.840Z,4.25
2022-08-27T10:29:33.164Z,3.92
2022-08-27T10:33:46.601Z,4.40
2022-08-27T10:38:00.111Z,4.35
2022-08-27T10:42:12.636Z,3.75
2022-08-27T10:46:50.088Z,3.90
2022-08-27T10:51:02.623Z,3.58
2022-08-27T10:55:14.051Z,4.00
2022-08-27T10:59:28.448Z,3.90
2022-08-27T11:03:39.663Z,3.25
2022-08-27T11:07:48.166Z,4.00
2022-08-27T11:12:13.807Z,3.20
2022-08-27T11:16:22.631Z,4.13
2022-08-27T11:20:32.760Z,3.30
2022-08-27T11:24:40.333Z,3.35
2022-08-27T11:28:48.954Z,2.90
2022-08-27T11:33:01.122Z,3.83
2022-08-27T11:41:42.321Z,3.13
2022-08-27T11:45:59.151Z,2.92
2022-08-27T11:50:08.239Z,4.57
2022-08-27T11:54:33.186Z,4.22
2022-08-27T11:58:52.996Z,4.07
2022-08-27T12:03:01.371Z,4.35
2022-08-27T12:07:07.588Z,3.63
2022-08-27T12:11:28.484Z,3.08
2022-08-27T12:15:47.272Z,3.55
2022-08-27T12:20:01.784Z,3.28
2022-08-27T12:29:35.884Z,3.05
2022-08-27T12:33:45.814Z,2.65
2022-08-27T12:37:51.523Z,2.13
2022-08-27T12:42:00.440Z,2.42
2022-08-27T12:46:09.558Z,2.97
2022-08-27T12:50:14.433Z,2.50
2022-08-27T12:54:32.631Z,2.67
2022-08-27T12:58:52.161Z,2.97
2022-08-27T13:03:32.044Z,2.20
2022-08-27T13:07:43.757Z,2.35
2022-08-27T13:11:49.223Z,2.47
2022-08-27T13:15:56.290Z,2.72
2022-08-27T13:20:02.748Z,2.92
2022-08-27T13:24:08.473Z,2.97
2022-08-27T13:28:16.625Z,2.30
2022-08-27T13:32:20.346Z,2.55
2022-08-27T13:36:32.192Z,2.88
2022-08-27T13:40:39.462Z,2.60
2022-08-27T13:44:44.593Z,2.17
2022-08-27T13:48:54.595Z,2.20
2022-08-27T13:53:24.919Z,1.92
2022-08-27T13:57:33.252Z,3.10
2022-08-27T14:01:39.301Z,2.58
2022-08-27T14:05:50.093Z,2.35
2022-08-27T14:09:56.529Z,2.85
2022-08-27T14:14:02.124Z,2.85
2022-08-27T14:18:08.650Z,2.63
2022-08-27T14:26:37.118Z,2.20
2022-08-27T14:30:41.866Z,2.75
2022-08-27T14:34:46.245Z,2.33
2022-08-27T14:38:52.136Z,2.97
2022-08-27T14:42:55.465Z,2.75
2022-08-27T14:47:02.005Z,2.90
2022-08-27T14:51:23.834Z,2.58
2022-08-27T14:55:27.696Z,2.50
2022-08-27T14:59:31.184Z,2.30
2022-08-27T15:03:43.335Z,2.40
2022-08-27T15:11:52.813Z,2.47
2022-08-27T15:15:56.027Z,3.15
2022-08-27T15:20:01.344Z,2.65
2022-08-27T15:24:07.617Z,2.17
2022-08-27T15:28:10.815Z,3.00
2022-08-27T15:32:23.785Z,2.63
2022-08-27T15:36:33.479Z,2.40
2022-08-27T15:40:37.912Z,2.78
2022-08-27T15:44:47.231Z,2.30
2022-08-27T15:48:50.948Z,2.72
2022-08-27T15:53:00.185Z,2.33
2022-08-27T15:57:03.779Z,2.28
2022-08-27T16:01:11.563Z,2.15
2022-08-27T16:05:16.865Z,2.85
2022-08-27T16:09:21.879Z,2.80
2022-08-27T16:13:27.006Z,2.05
2022-08-27T16:17:30.701Z,2.38
2022-08-27T16:21:35.916Z,2.10
2022-08-27T16:25:40.900Z,2.20
2022-08-27T16:29:44.230Z,1.92
2022-08-27T16:33:47.902Z,3.20
2022-08-27T16:37:51.810Z,2.95
2022-08-27T16:41:56.701Z,2.60
2022-08-27T16:46:01.724Z,2.90
2022-08-27T16:50:26.076Z,2.60
2022-08-27T16:54:30.065Z,2.58
2022-08-27T16:58:35.449Z,3.00
2022-08-27T17:02:39.157Z,2.22
2022-08-27T17:06:42.488Z,2.70
2022-08-27T17:10:48.445Z,2.22
2022-08-27T17:14:53.434Z,3.03
2022-08-27T17:18:58.952Z,2.30
2022-08-27T17:23:02.920Z,3.13
2022-08-27T17:27:06.432Z,3.22
2022-08-27T17:31:13.917Z,2.95
2022-08-27T17:35:19.071Z,2.70
2022-08-27T17:39:23.851Z,3.33
2022-08-27T17:43:27.267Z,2.60
2022-08-27T17:47:32.879Z,3.10
2022-08-27T17:51:36.819Z,3.05
2022-08-27T17:55:41.540Z,2.80
2022-08-27T17:59:45.694Z,3.33
2022-08-27T18:03:51.387Z,3.28
2022-08-27T18:07:57.149Z,3.25
2022-08-27T18:12:05.174Z,3.97
2022-08-27T18:16:10.418Z,2.70
2022-08-27T18:20:17.827Z,3.15
2022-08-27T18:24:21.574Z,3.40
2022-08-27T18:28:29.859Z,3.95
2022-08-27T18:32:34.264Z,3.80
2022-08-27T18:36:44.805Z,3.85
2022-08-27T18:40:52.596Z,4.93
2022-08-27T18:44:57.332Z,4.22
2022-08-27T18:49:02.197Z,4.05
2022-08-27T18:53:09.518Z,4.95
2022-08-27T18:57:16.268Z,5.20
2022-08-27T19:01:22.121Z,5.10
2022-08-27T19:05:28.446Z,5.65
2022-08-27T19:09:35.653Z,5.20
2022-08-27T19:13:40.696Z,5.18
2022-08-27T19:17:50.856Z,5.20
2022-08-27T19:21:56.175Z,5.13
2022-08-27T19:26:05.288Z,5.80
2022-08-27T19:30:13.359Z,5.63
2022-08-27T19:34:17.535Z,4.65
2022-08-27T19:38:22.051Z,5.15
2022-08-27T19:42:30.653Z,4.80
2022-08-27T19:46:37.102Z,4.03
2022-08-27T19:50:41.143Z,3.45
2022-08-27T19:54:57.229Z,3.80
2022-08-27T19:59:20.590Z,3.38
2022-08-27T20:03:24.935Z,3.55
2022-08-27T20:07:30.744Z,3.00
2022-08-27T20:11:40.017Z,3.20
2022-08-27T20:15:47.038Z,1.92
2022-08-27T20:19:51.793Z,2.60
2022-08-27T20:23:56.084Z,1.90
2022-08-27T20:28:12.275Z,1.70
2022-08-27T20:32:39.084Z,1.90
2022-08-27T20:36:43.295Z,2.33
2022-08-27T20:40:48.770Z,2.10
2022-08-27T20:44:53.510Z,2.42
2022-08-27T20:48:59.336Z,2.42
2022-08-27T20:53:03.542Z,2.33
2022-08-27T20:57:08.792Z,2.05
2022-08-27T21:01:13.273Z,2.17
2022-08-27T21:05:21.232Z,1.98
2022-08-27T21:09:24.902Z,2.03
2022-08-27T21:13:32.315Z,2.33
2022-08-27T21:17:37.346Z,2.55
2022-08-27T21:21:43.946Z,2.55
2022-08-27T21:25:48.077Z,3.10
2022-08-27T21:29:52.658Z,3.50
2022-08-27T21:33:57.022Z,3.00
2022-08-27T21:38:02.906Z,3.65
2022-08-27T21:42:07.721Z,3.53
2022-08-27T21:46:11.383Z,4.07
2022-08-27T21:50:15.845Z,3.90
2022-08-27T21:54:26.145Z,3.97
2022-08-27T21:58:31.441Z,3.58
2022-08-27T22:02:40.374Z,4.22
2022-08-27T22:06:45.054Z,3.83
2022-08-27T22:10:53.770Z,3.75
2022-08-27T22:14:57.239Z,3.33
2022-08-27T22:19:03.519Z,3.28
2022-08-27T22:23:09.215Z,3.47
2022-08-27T22:27:17.453Z,3.05
2022-08-27T22:31:22.187Z,2.42
2022-08-27T22:35:26.325Z,2.15
2022-08-27T22:39:34.856Z,3.22
2022-08-27T22:43:40.601Z,2.67
2022-08-27T22:47:45.274Z,3.63
2022-08-27T22:51:50.624Z,2.97
2022-08-27T22:55:55.102Z,2.53
2022-08-27T23:00:02.812Z,2.45
2022-08-27T23:04:08.757Z,2.15
2022-08-27T23:08:17.858Z,2.70
2022-08-27T23:12:22.327Z,2.17
2022-08-27T23:16:28.317Z,2.83
2022-08-27T23:20:33.223Z,3.08
2022-08-27T23:24:58.864Z,2.90
2022-08-27T23:29:02.791Z,2.78
2022-08-27T23:33:08.769Z,3.30
2022-08-27T23:37:12.568Z,3.10
2022-08-27T23:41:20.907Z,2.92
2022-08-27T23:45:28.283Z,3.05
2022-08-27T23:49:34.212Z,2.72
